createdAt,value
2017-12-25T00:00:39.240Z,6.00
2017-12-25T00:03:07.608Z,6.00
2017-12-25T00:05:35.979Z,6.00
2017-12-25T00:08:04.296Z,6.00
2017-12-25T00:10:32.611Z,6.00
2017-12-25T00:13:21.650Z,6.00
2017-12-25T00:15:49.970Z,6.00
2017-12-25T00:18:19.056Z,6.00
2017-12-25T00:20:48.134Z,6.00
2017-12-25T00:23:16.472Z,6.00
2017-12-25T00:25:44.788Z,6.00
2017-12-25T00:28:13.149Z,6.00
2017-12-25T00:30:41.495Z,6.00
2017-12-25T00:33:09.822Z,6.00
2017-12-25T00:35:38.159Z,6.00
2017-12-25T00:38:06.509Z,6.00
2017-12-25T00:40:35.606Z,6.00
2017-12-25T00:43:03.949Z,6.00
2017-12-25T00:45:32.290Z,6.00
2017-12-25T00:48:00.602Z,6.00
2017-12-25T00:50:28.939Z,6.00
2017-12-25T00:52:57.236Z,6.00
2017-12-25T00:55:25.571Z,6.00
2017-12-25T00:57:53.877Z,6.00
2017-12-25T01:00:22.219Z,6.00
2017-12-25T01:02:50.530Z,6.00
2017-12-25T01:05:18.889Z,6.00
2017-12-25T01:07:47.958Z,6.00
2017-12-25T01:10:16.260Z,5.90
2017-12-25T01:12:45.354Z,6.00
2017-12-25T01:15:14.436Z,6.00
2017-12-25T01:17:42.829Z,6.00
2017-12-25T01:20:11.190Z,5.90
2017-12-25T01:22:39.530Z,5.90
2017-12-25T01:25:07.841Z,5.90
2017-12-25T01:27:36.186Z,5.90
2017-12-25T01:30:04.498Z,5.90
2017-12-25T01:32:32.838Z,5.90
2017-12-25T01:35:01.133Z,5.90
2017-12-25T01:37:29.462Z,5.90
2017-12-25T01:39:58.540Z,5.80
2017-12-25T01:42:26.871Z,5.80
2017-12-25T01:44:55.205Z,5.80
2017-12-25T01:47:23.558Z,5.90
2017-12-25T01:49:51.885Z,5.80
2017-12-25T01:52:20.979Z,5.80
2017-12-25T01:54:49.044Z,5.80
2017-12-25T01:57:41.285Z,5.80
2017-12-25T02:00:21.027Z,5.90
2017-12-25T02:02:53.930Z,5.80
2017-12-25T02:08:30.665Z,5.80
2017-12-25T02:10:58.732Z,5.80
2017-12-25T02:13:27.579Z,5.70
2017-12-25T02:15:55.675Z,5.70
2017-12-25T02:18:24.006Z,5.70
2017-12-25T02:20:52.302Z,5.70
2017-12-25T02:23:21.410Z,5.70
2017-12-25T02:25:50.487Z,5.70
2017-12-25T02:28:18.855Z,5.70
2017-12-25T02:30:47.166Z,5.70
2017-12-25T02:33:15.503Z,5.70
2017-12-25T02:35:43.824Z,5.70
2017-12-25T02:38:12.129Z,5.70
2017-12-25T02:40:40.452Z,5.60
2017-12-25T02:43:08.773Z,5.70
2017-12-25T02:45:37.087Z,5.60
2017-12-25T02:48:05.412Z,5.70
2017-12-25T02:50:34.500Z,5.60
2017-12-25T02:53:03.571Z,5.60
2017-12-25T02:55:31.905Z,5.60
2017-12-25T02:58:00.214Z,5.70
2017-12-25T03:00:28.545Z,5.70
2017-12-25T03:02:56.859Z,5.70
2017-12-25T03:05:25.187Z,5.70
2017-12-25T03:07:54.259Z,5.70
2017-12-25T03:10:22.579Z,5.60
2017-12-25T03:12:50.914Z,5.60
2017-12-25T03:15:19.234Z,5.60
2017-12-25T03:17:47.687Z,5.50
2017-12-25T03:20:15.997Z,5.50
2017-12-25T03:22:45.198Z,5.50
2017-12-25T03:25:13.496Z,5.50
2017-12-25T03:27:41.825Z,5.60
2017-12-25T03:30:10.145Z,5.60
2017-12-25T03:32:38.469Z,5.50
2017-12-25T03:35:06.764Z,5.50
2017-12-25T03:37:35.886Z,5.60
2017-12-25T03:40:04.241Z,5.50
2017-12-25T03:42:33.508Z,5.50
2017-12-25T03:45:01.836Z,5.50
2017-12-25T03:47:30.139Z,5.60
2017-12-25T03:49:58.471Z,5.60
2017-12-25T03:52:26.765Z,5.50
2017-12-25T03:54:55.876Z,5.50
2017-12-25T03:57:24.176Z,5.50
2017-12-25T03:59:52.502Z,5.50
2017-12-25T04:02:21.568Z,5.50
2017-12-25T04:04:49.895Z,5.50
2017-12-25T04:07:18.200Z,5.50
2017-12-25T04:09:46.516Z,5.50
2017-12-25T04:12:14.810Z,5.50
2017-12-25T04:14:43.937Z,5.50
2017-12-25T04:17:12.221Z,5.50
2017-12-25T04:19:40.520Z,5.50
2017-12-25T04:22:08.849Z,5.50
2017-12-25T04:24:38.404Z,5.40
2017-12-25T04:27:06.732Z,5.40
2017-12-25T04:29:35.034Z,5.40
2017-12-25T04:32:03.355Z,5.50
2017-12-25T04:34:31.655Z,5.40
2017-12-25T04:36:59.982Z,5.40
2017-12-25T04:39:28.285Z,5.40
2017-12-25T04:41:56.596Z,5.40
2017-12-25T04:44:24.906Z,5.40
2017-12-25T04:46:53.221Z,5.40
2017-12-25T04:49:21.532Z,5.40
2017-12-25T04:51:50.626Z,5.40
2017-12-25T04:54:19.689Z,5.40
2017-12-25T04:56:48.007Z,5.40
2017-12-25T04:59:17.067Z,5.40
2017-12-25T05:01:46.297Z,5.40
2017-12-25T05:04:14.593Z,5.30
2017-12-25T05:06:42.933Z,5.30
2017-12-25T05:09:11.235Z,5.20
2017-12-25T05:11:40.317Z,5.20
2017-12-25T05:14:08.635Z,5.20
2017-12-25T05:16:36.948Z,5.20
2017-12-25T05:19:05.244Z,5.30
2017-12-25T05:21:33.563Z,5.30
2017-12-25T05:24:01.876Z,5.30
2017-12-25T05:26:30.236Z,5.30
2017-12-25T05:28:58.546Z,5.30
2017-12-25T05:31:26.854Z,5.20
2017-12-25T05:33:55.948Z,5.20
2017-12-25T05:36:24.252Z,5.20
2017-12-25T05:38:52.588Z,5.20
2017-12-25T05:41:20.888Z,5.20
2017-12-25T05:43:49.985Z,5.10
2017-12-25T05:46:18.631Z,5.10
2017-12-25T05:48:46.964Z,5.20
2017-12-25T05:51:15.279Z,5.20
2017-12-25T05:53:43.600Z,5.20
2017-12-25T05:56:12.684Z,5.20
2017-12-25T05:58:40.972Z,5.20
2017-12-25T06:01:10.063Z,5.20
2017-12-25T06:03:38.359Z,5.20
2017-12-25T06:06:07.434Z,5.20
2017-12-25T06:08:35.735Z,5.10
2017-12-25T06:11:04.818Z,5.20
2017-12-25T06:13:34.638Z,5.20
2017-12-25T06:16:03.736Z,5.20
2017-12-25T06:18:32.813Z,5.20
2017-12-25T06:21:01.146Z,5.10
2017-12-25T06:23:29.448Z,5.10
2017-12-25T06:25:57.785Z,5.10
2017-12-25T06:28:26.097Z,5.10
2017-12-25T06:30:54.407Z,5.10
2017-12-25T06:33:22.737Z,5.00
2017-12-25T06:35:51.037Z,5.00
2017-12-25T06:38:19.403Z,4.90
2017-12-25T06:40:47.712Z,5.00
2017-12-25T06:43:16.057Z,5.00
2017-12-25T06:45:44.362Z,5.00
2017-12-25T06:48:12.697Z,5.00
2017-12-25T06:50:40.993Z,4.90
2017-12-25T06:53:09.316Z,4.90
2017-12-25T06:55:37.646Z,4.70
2017-12-25T06:58:05.944Z,4.70
2017-12-25T07:00:34.324Z,4.70
2017-12-25T07:03:02.617Z,4.80
2017-12-25T07:05:30.935Z,4.80
2017-12-25T07:07:59.240Z,4.70
2017-12-25T07:10:27.553Z,4.70
2017-12-25T07:12:55.863Z,4.70
2017-12-25T07:15:24.978Z,4.70
2017-12-25T07:17:53.284Z,4.70
2017-12-25T07:20:21.606Z,4.70
2017-12-25T07:22:49.905Z,4.70
2017-12-25T07:25:18.224Z,4.70
2017-12-25T07:27:46.529Z,4.70
2017-12-25T07:30:14.848Z,4.60
2017-12-25T07:32:43.141Z,4.60
2017-12-25T07:35:11.460Z,4.50
2017-12-25T07:37:39.762Z,4.50
2017-12-25T07:40:08.851Z,4.60
2017-12-25T07:42:37.925Z,4.60
2017-12-25T07:45:06.249Z,4.60
2017-12-25T07:47:34.551Z,4.60
2017-12-25T07:50:02.876Z,4.50
2017-12-25T07:52:31.224Z,4.50
2017-12-25T07:54:59.548Z,4.60
2017-12-25T07:57:27.851Z,4.40
2017-12-25T07:59:56.152Z,4.40
2017-12-25T08:02:24.465Z,4.40
2017-12-25T08:04:53.535Z,4.40
2017-12-25T08:07:21.843Z,4.30
2017-12-25T08:09:50.916Z,4.20
2017-12-25T08:12:19.230Z,4.20
2017-12-25T08:14:47.531Z,4.30
2017-12-25T08:17:15.847Z,4.30
2017-12-25T08:19:44.157Z,4.30
2017-12-25T08:22:13.262Z,4.30
2017-12-25T08:24:41.569Z,4.30
2017-12-25T08:27:09.912Z,4.30
2017-12-25T08:29:38.976Z,4.30
2017-12-25T08:32:07.292Z,4.30
2017-12-25T08:34:36.384Z,4.30
2017-12-25T08:37:05.447Z,4.20
2017-12-25T08:39:33.768Z,4.20
2017-12-25T08:42:02.074Z,4.20
2017-12-25T08:44:30.410Z,4.20
2017-12-25T08:46:59.482Z,4.30
2017-12-25T08:49:27.810Z,4.30
2017-12-25T08:51:56.114Z,4.40
2017-12-25T08:54:24.440Z,4.40
2017-12-25T08:56:53.507Z,4.50
2017-12-25T08:59:21.833Z,4.40
2017-12-25T09:01:50.145Z,4.40
2017-12-25T09:04:18.467Z,4.40
2017-12-25T09:06:46.773Z,4.40
2017-12-25T09:09:15.119Z,4.40
2017-12-25T09:11:43.416Z,4.50
2017-12-25T09:14:12.506Z,4.50
2017-12-25T09:16:41.566Z,4.40
2017-12-25T09:19:09.890Z,4.50
2017-12-25T09:21:38.218Z,4.40
2017-12-25T09:24:06.517Z,4.40
2017-12-25T09:26:34.848Z,4.50
2017-12-25T09:29:03.151Z,4.50
2017-12-25T09:31:31.471Z,4.60
2017-12-25T09:34:00.540Z,4.60
2017-12-25T09:36:28.846Z,4.60
2017-12-25T09:38:57.907Z,4.60
2017-12-25T09:41:26.217Z,4.60
2017-12-25T09:43:55.280Z,4.70
2017-12-25T09:46:23.607Z,4.70
2017-12-25T09:48:51.896Z,4.70
2017-12-25T09:51:20.265Z,4.60
2017-12-25T09:53:48.571Z,4.60
2017-12-25T09:56:16.855Z,4.60
2017-12-25T09:58:45.172Z,4.70
2017-12-25T10:01:14.228Z,4.70
2017-12-25T10:03:42.556Z,4.70
2017-12-25T10:06:11.625Z,4.60
2017-12-25T10:08:39.943Z,4.60
2017-12-25T10:11:08.239Z,4.60
2017-12-25T10:13:36.561Z,4.60
2017-12-25T10:16:04.864Z,4.70
2017-12-25T10:18:33.221Z,4.80
2017-12-25T10:21:01.537Z,4.70
2017-12-25T10:23:30.619Z,4.70
2017-12-25T10:25:58.934Z,4.70
2017-12-25T10:28:27.244Z,4.60
2017-12-25T10:30:55.563Z,4.70
2017-12-25T10:33:23.867Z,4.60
2017-12-25T10:35:52.184Z,4.70
2017-12-25T10:38:20.508Z,4.80
2017-12-25T10:40:48.831Z,4.80
2017-12-25T10:43:17.314Z,4.80
2017-12-25T10:45:45.628Z,4.80
2017-12-25T10:48:14.688Z,4.70
2017-12-25T10:50:43.011Z,4.70
2017-12-25T10:53:11.328Z,4.80
2017-12-25T10:55:39.642Z,4.70
2017-12-25T10:58:07.942Z,4.70
2017-12-25T11:00:41.961Z,4.70
2017-12-25T11:03:11.048Z,4.60
2017-12-25T11:05:40.140Z,4.60
2017-12-25T11:08:09.203Z,4.60
2017-12-25T11:10:37.537Z,4.60
2017-12-25T11:13:05.829Z,4.60
2017-12-25T11:15:34.158Z,4.60
2017-12-25T11:18:02.457Z,4.70
2017-12-25T11:20:30.794Z,4.60
2017-12-25T11:22:59.097Z,4.70
2017-12-25T11:25:27.452Z,4.80
2017-12-25T11:27:55.765Z,4.70
2017-12-25T11:30:24.104Z,4.70
2017-12-25T11:32:52.427Z,4.70
2017-12-25T11:35:20.753Z,4.70
2017-12-25T11:37:49.071Z,4.70
2017-12-25T11:40:18.174Z,4.90
2017-12-25T11:42:46.472Z,4.80
2017-12-25T11:45:14.793Z,4.80
2017-12-25T11:47:43.125Z,4.90
2017-12-25T11:50:11.445Z,4.80
2017-12-25T11:52:39.773Z,4.80
2017-12-25T11:55:08.099Z,4.70
2017-12-25T11:57:36.400Z,4.70
2017-12-25T12:00:04.722Z,4.60
2017-12-25T12:02:33.029Z,4.70
2017-12-25T12:05:01.351Z,4.80
2017-12-25T12:07:30.416Z,4.80
2017-12-25T12:09:58.731Z,4.80
2017-12-25T12:12:27.044Z,4.90
2017-12-25T12:14:55.368Z,4.90
2017-12-25T12:17:23.677Z,4.90
2017-12-25T12:19:52.004Z,4.90
2017-12-25T12:22:20.305Z,4.70
2017-12-25T12:24:49.412Z,4.70
2017-12-25T12:27:18.487Z,4.70
2017-12-25T12:29:46.809Z,4.70
2017-12-25T12:32:15.130Z,4.80
2017-12-25T12:34:43.464Z,4.70
2017-12-25T12:37:11.772Z,4.70
2017-12-25T12:39:40.917Z,4.80
2017-12-25T12:42:09.974Z,4.90
2017-12-25T12:44:38.319Z,4.90
2017-12-25T12:47:06.631Z,5.00
2017-12-25T12:49:34.955Z,5.00
2017-12-25T12:52:04.034Z,5.10
2017-12-25T12:54:32.359Z,5.10
2017-12-25T12:57:00.648Z,5.00
2017-12-25T12:59:28.982Z,5.00
2017-12-25T13:01:57.293Z,5.00
2017-12-25T13:04:25.592Z,5.00
2017-12-25T13:06:53.903Z,5.10
2017-12-25T13:09:22.216Z,4.90
2017-12-25T13:11:50.550Z,4.90
2017-12-25T13:14:18.856Z,4.90
2017-12-25T13:16:47.237Z,4.90
2017-12-25T13:19:16.305Z,5.00
2017-12-25T13:21:45.425Z,5.00
2017-12-25T13:24:14.491Z,4.90
2017-12-25T13:26:42.883Z,4.90
2017-12-25T13:29:11.190Z,4.80
2017-12-25T13:31:39.541Z,4.90
2017-12-25T13:34:07.849Z,4.90
2017-12-25T13:36:36.192Z,4.90
2017-12-25T13:39:04.577Z,4.90
2017-12-25T13:41:32.900Z,4.80
2017-12-25T13:44:01.204Z,4.70
2017-12-25T13:46:29.534Z,4.70
2017-12-25T13:48:58.596Z,4.80
2017-12-25T13:51:26.916Z,4.80
2017-12-25T13:53:55.237Z,4.80
2017-12-25T13:56:23.560Z,4.90
2017-12-25T13:58:53.532Z,4.80
2017-12-25T14:01:21.868Z,4.80
2017-12-25T14:03:50.176Z,4.90
2017-12-25T14:06:18.502Z,4.90
2017-12-25T14:08:46.814Z,4.90
2017-12-25T14:11:15.142Z,4.70
2017-12-25T14:13:43.461Z,4.60
2017-12-25T14:16:11.788Z,4.70
2017-12-25T14:18:40.086Z,4.60
2017-12-25T14:24:09.009Z,4.70
2017-12-25T14:26:37.334Z,4.70
2017-12-25T14:29:05.637Z,4.70
2017-12-25T14:31:33.974Z,4.60
2017-12-25T14:34:02.273Z,4.60
2017-12-25T14:36:30.604Z,4.50
2017-12-25T14:39:00.564Z,4.40
2017-12-25T14:41:28.881Z,4.40
2017-12-25T14:43:57.195Z,4.50
2017-12-25T14:46:26.286Z,4.60
2017-12-25T14:48:55.348Z,4.50
2017-12-25T14:51:23.681Z,4.50
2017-12-25T14:53:51.996Z,4.50
2017-12-25T14:56:20.330Z,4.20
2017-12-25T14:58:48.630Z,4.20
2017-12-25T15:01:16.961Z,4.20
2017-12-25T15:03:46.064Z,4.30
2017-12-25T15:06:15.189Z,4.40
2017-12-25T15:08:43.492Z,4.40
2017-12-25T15:11:11.834Z,4.30
2017-12-25T15:13:40.164Z,4.20
2017-12-25T15:16:08.482Z,4.00
2017-12-25T15:18:37.611Z,4.10
2017-12-25T15:21:05.924Z,4.10
2017-12-25T15:23:34.260Z,4.00
2017-12-25T15:26:02.565Z,4.10
2017-12-25T15:28:30.908Z,4.10
2017-12-25T15:30:59.208Z,4.10
2017-12-25T15:33:27.537Z,4.10
2017-12-25T15:35:55.858Z,4.10
2017-12-25T15:38:24.172Z,4.10
2017-12-25T15:40:53.584Z,4.20
2017-12-25T15:43:21.906Z,4.10
2017-12-25T15:45:50.217Z,4.10
2017-12-25T15:48:18.540Z,4.10
2017-12-25T15:50:47.633Z,4.00
2017-12-25T15:53:16.718Z,4.10
2017-12-25T15:55:45.786Z,4.00
2017-12-25T15:58:14.190Z,4.00
2017-12-25T16:00:42.488Z,4.10
2017-12-25T16:03:10.828Z,4.10
2017-12-25T16:05:39.116Z,4.00
2017-12-25T16:08:07.462Z,4.10
2017-12-25T16:10:35.769Z,4.00
2017-12-25T16:13:04.124Z,4.10
2017-12-25T16:15:32.458Z,4.00
2017-12-25T16:18:01.521Z,3.70
2017-12-25T16:20:29.869Z,3.70
2017-12-25T16:22:58.201Z,3.60
2017-12-25T16:25:27.296Z,3.60
2017-12-25T16:27:56.367Z,3.60
2017-12-25T16:30:24.707Z,3.60
2017-12-25T16:32:53.008Z,3.70
2017-12-25T16:35:21.348Z,3.80
2017-12-25T16:37:49.659Z,3.70
2017-12-25T16:40:17.996Z,3.60
2017-12-25T16:42:46.329Z,3.60
2017-12-25T16:45:14.736Z,3.60
2017-12-25T16:47:43.040Z,3.60
2017-12-25T16:50:11.355Z,3.50
2017-12-25T16:52:39.691Z,3.40
2017-12-25T16:55:08.016Z,3.30
2017-12-25T16:57:36.357Z,3.20
2017-12-25T17:00:04.678Z,2.90
2017-12-25T17:02:33.013Z,2.40
2017-12-25T17:05:01.319Z,2.50
2017-12-25T17:07:29.667Z,2.40
2017-12-25T17:09:59.956Z,2.40
2017-12-25T17:12:28.294Z,2.50
2017-12-25T17:14:56.597Z,2.40
2017-12-25T17:17:24.919Z,2.40
2017-12-25T17:19:54.030Z,2.60
2017-12-25T17:22:22.340Z,2.60
2017-12-25T17:24:50.693Z,2.30
2017-12-25T17:27:19.012Z,1.90
2017-12-25T17:29:47.362Z,2.00
2017-12-25T17:32:15.684Z,2.10
2017-12-25T17:34:44.023Z,2.00
2017-12-25T17:37:12.340Z,2.00
2017-12-25T17:39:40.684Z,2.10
2017-12-25T17:42:08.987Z,2.20
2017-12-25T17:44:37.327Z,2.20
2017-12-25T17:47:05.641Z,2.10
2017-12-25T17:49:33.994Z,1.90
2017-12-25T17:52:02.336Z,1.90
2017-12-25T17:54:31.436Z,1.80
2017-12-25T17:56:59.760Z,1.80
2017-12-25T17:59:28.104Z,1.70
2017-12-25T18:01:56.414Z,1.50
2017-12-25T18:04:24.756Z,1.50
2017-12-25T18:06:53.065Z,1.20
2017-12-25T18:09:21.396Z,1.10
2017-12-25T18:11:49.729Z,1.00
2017-12-25T18:14:18.098Z,1.10
2017-12-25T18:16:46.409Z,1.10
2017-12-25T18:19:14.716Z,1.20
2017-12-25T18:21:53.910Z,1.30
2017-12-25T18:24:22.217Z,1.30
2017-12-25T18:26:50.563Z,1.30
2017-12-25T18:29:18.883Z,1.10
2017-12-25T18:31:47.977Z,1.10
2017-12-25T18:34:17.055Z,1.10
2017-12-25T18:36:45.402Z,1.10
2017-12-25T18:39:19.586Z,1.00
2017-12-25T18:41:47.929Z,0.60
2017-12-25T18:44:16.240Z,0.20
2017-12-25T18:46:44.581Z,0.00
2017-12-25T18:49:12.889Z,0.00
2017-12-25T18:51:41.225Z,0.20
2017-12-25T18:54:09.551Z,0.10
2017-12-25T18:56:37.887Z,0.00
2017-12-25T18:59:06.232Z,0.10
2017-12-25T19:01:34.572Z,0.20
2017-12-25T19:04:03.663Z,0.30
2017-12-25T19:06:32.803Z,0.20
2017-12-25T19:09:01.127Z,0.20
2017-12-25T19:11:30.228Z,-0.10
2017-12-25T19:13:58.563Z,-0.10
2017-12-25T19:16:26.900Z,-0.20
2017-12-25T19:18:56.020Z,-0.20
2017-12-25T19:21:24.340Z,-0.20
2017-12-25T19:23:52.681Z,0.00
2017-12-25T19:26:20.989Z,0.00
2017-12-25T19:28:49.375Z,-0.10
2017-12-25T19:31:17.760Z,-0.10
2017-12-25T19:33:46.148Z,-0.30
2017-12-25T19:36:14.544Z,-0.40
2017-12-25T19:38:42.898Z,-0.40
2017-12-25T19:41:11.275Z,-0.40
2017-12-25T19:43:39.635Z,-0.20
2017-12-25T19:46:07.996Z,-0.20
2017-12-25T19:48:36.378Z,-0.10
2017-12-25T19:51:04.759Z,0.00
2017-12-25T19:53:33.080Z,0.00
2017-12-25T19:56:01.471Z,-0.10
2017-12-25T19:58:29.848Z,-0.40
2017-12-25T20:00:58.182Z,-0.60
2017-12-25T20:03:26.505Z,-0.70
2017-12-25T20:05:54.904Z,-0.70
2017-12-25T20:08:23.288Z,-0.60
2017-12-25T20:10:51.637Z,-0.60
2017-12-25T20:13:20.011Z,-0.50
2017-12-25T20:15:48.335Z,-0.60
2017-12-25T20:18:16.673Z,-0.60
2017-12-25T20:20:45.070Z,-0.70
2017-12-25T20:23:14.254Z,-0.90
2017-12-25T20:25:42.609Z,-0.90
2017-12-25T20:28:10.992Z,-0.90
2017-12-25T20:30:39.421Z,-0.80
2017-12-25T20:33:08.555Z,-0.80
2017-12-25T20:35:36.923Z,-0.80
2017-12-25T20:38:05.274Z,-0.80
2017-12-25T20:40:34.409Z,-0.80
2017-12-25T20:43:02.786Z,-0.90
2017-12-25T20:45:31.157Z,-0.80
2017-12-25T20:47:59.546Z,-0.80
2017-12-25T20:50:27.871Z,-0.80
2017-12-25T20:52:56.267Z,-0.80
2017-12-25T20:55:24.584Z,-0.70
2017-12-25T20:57:52.979Z,-0.80
2017-12-25T21:00:21.356Z,-0.80
2017-12-25T21:02:49.748Z,-0.90
2017-12-25T21:05:18.128Z,-0.90
2017-12-25T21:07:46.474Z,-1.00
2017-12-25T21:10:14.869Z,-1.10
2017-12-25T21:12:43.254Z,-1.10
2017-12-25T21:15:11.694Z,-1.00
2017-12-25T21:17:40.011Z,-1.10
2017-12-25T21:20:08.378Z,-1.20
2017-12-25T21:22:36.782Z,-1.30
2017-12-25T21:25:05.161Z,-1.30
2017-12-25T21:27:33.565Z,-1.20
2017-12-25T21:30:01.934Z,-1.10
2017-12-25T21:32:30.325Z,-1.00
2017-12-25T21:34:58.645Z,-1.00
2017-12-25T21:37:27.046Z,-1.00
2017-12-25T21:39:55.427Z,-1.00
2017-12-25T21:42:23.811Z,-0.90
2017-12-25T21:44:52.184Z,-0.80
2017-12-25T21:47:20.581Z,-0.70
2017-12-25T21:49:48.975Z,-0.90
2017-12-25T21:52:17.367Z,-0.80
2017-12-25T21:54:46.452Z,-0.90
2017-12-25T21:57:34.002Z,-0.90
2017-12-25T22:00:03.075Z,-1.10
2017-12-25T22:02:31.486Z,-1.10
2017-12-25T22:05:00.635Z,-1.10
2017-12-25T22:07:28.998Z,-1.10
2017-12-25T22:09:57.395Z,-0.90
2017-12-25T22:12:25.731Z,-1.00
2017-12-25T22:14:54.073Z,-1.20
2017-12-25T22:17:23.181Z,-1.30
2017-12-25T22:19:52.348Z,-1.20
2017-12-25T22:22:20.744Z,-1.30
2017-12-25T22:24:49.140Z,-1.40
2017-12-25T22:27:18.297Z,-1.50
2017-12-25T22:29:46.740Z,-1.50
2017-12-25T22:32:15.115Z,-1.60
2017-12-25T22:34:43.500Z,-1.50
2017-12-25T22:37:11.882Z,-1.50
2017-12-25T22:39:40.256Z,-1.50
2017-12-25T22:42:08.644Z,-1.50
2017-12-25T22:44:37.016Z,-1.60
2017-12-25T22:47:05.426Z,-1.60
2017-12-25T22:49:33.800Z,-1.70
2017-12-25T22:52:02.201Z,-1.70
2017-12-25T22:54:30.597Z,-1.70
2017-12-25T22:56:58.980Z,-1.70
2017-12-25T22:59:27.338Z,-1.70
2017-12-25T23:01:55.730Z,-1.70
2017-12-25T23:04:24.094Z,-1.60
2017-12-25T23:06:52.491Z,-1.60
2017-12-25T23:09:20.817Z,-1.50
2017-12-25T23:11:49.239Z,-1.60
2017-12-25T23:14:17.596Z,-1.60
2017-12-25T23:16:45.990Z,-1.40
2017-12-25T23:19:14.319Z,-1.40
2017-12-25T23:21:43.466Z,-1.40
2017-12-25T23:24:11.830Z,-1.40
2017-12-25T23:26:40.159Z,-1.40
2017-12-25T23:29:08.540Z,-1.50
2017-12-25T23:31:36.912Z,-1.40
2017-12-25T23:34:05.300Z,-1.40
2017-12-25T23:36:33.698Z,-1.50
2017-12-25T23:39:02.800Z,-1.50
2017-12-25T23:41:31.166Z,-1.50
2017-12-25T23:44:00.314Z,-1.40
2017-12-25T23:46:28.666Z,-1.50
2017-12-25T23:48:57.075Z,-1.50
2017-12-25T23:51:25.455Z,-1.50
2017-12-25T23:53:53.854Z,-1.60
2017-12-25T23:56:22.184Z,-1.60
2017-12-25T23:58:50.569Z,-1.60
